Aérodrome :
LOGIN :

S'inscrire | Disclaimer

   EN    FR    IT 

 










Légende :    VFR   VFR Marginal   IFR   IFR Intensif   IFR Très Intensif
Visi : 
Plafond : 
>= 8 km
>= 3000ft
5 à 8 km
1000 à 3000 ft
1500m à 5 km
500 à 1000 ft
800 à 1500m
200 à 500 ft
< 800m
< 200 ft
Symboles :   Orages  Brouillard  Fortes neiges  Fortes précipitations  Vent > 20 kt
SIGMETs :   Divers  Orages  Givrage  Turbulence  Onde Orograph.  Cendres Volcan.







- Altitude de l'aérodrome : 55 ft
- Code IATA : DSA
- Voir les cartes d'approche


EGCN - Robin Hood Doncaster Sheffield

DERNIER METAR :
  • 231820Z 16005KT 7000 NSC 11/09 Q1033

METARs EXPIRÉS :
  • 231750Z 16007KT 8000 NSC 12/10 Q1032
  • 231720Z 15007KT 8000 NSC 11/09 Q1032
  • 231650Z 13006KT 8000 NSC 13/10 Q1032
  • 231620Z 13006KT CAVOK 15/10 Q1032
  • 231550Z 16007KT 090V190 CAVOK 15/10 Q1032

TAF TAF EGCN
Valide du 23 à 18h jusqu'au 24 à 18h UTC


231654Z 2318/2418 17008KT 8000 FEW045
BECMG 2318/2321 4000 BR
PROB30 2323/2411 0200 FG VV///
BECMG 2410/2412 6000 NSW
BECMG 2415/2418 3000 BR
Pas de NOTAMs connus pour ce terrain.



MET'MAP, la Météo Aéronautique d'un coup d'oeil ! - Copyright ORBIFLY Décembre 2007 - Disclaimer

ORBIFLY MET'MAP TEAM :

Programmation & Développement : Alexandra Zaïnal
Conception & Développement : Baudouin d'Aumeries
Co-Programmation & Développement : Marc-Olivier Méhu
Soutien technique & logistique : Manuel Goepfert

Contact : metmap@orbifly.com




SOURCES & CREDITS :

   NOAA